createdAt,value
2022-12-29T00:00:27.897Z,10.28999996
2022-12-29T00:01:23.809Z,10.26000023
2022-12-29T00:02:23.338Z,10.22000027
2022-12-29T00:03:17.025Z,10.18000031
2022-12-29T00:04:15.293Z,10.14999962
2022-12-29T00:05:12.929Z,10.13000011
2022-12-29T00:06:12.198Z,10.10999966
2022-12-29T00:07:10.795Z,10.10000038
2022-12-29T00:08:08.642Z,10.06999969
2022-12-29T00:09:03.214Z,10.06999969
2022-12-29T00:10:04.180Z,10.05000019
2022-12-29T00:10:55.666Z,10.01000023
2022-12-29T00:11:58.429Z,9.989999771
2022-12-29T00:12:56.346Z,9.960000038
2022-12-29T00:13:55.198Z,9.960000038
2022-12-29T00:14:49.572Z,9.960000038
2022-12-29T00:16:02.045Z,10.10000038
2022-12-29T00:17:02.457Z,10.14999962
2022-12-29T00:17:55.386Z,10.17000008
2022-12-29T00:18:55.500Z,10.17000008
2022-12-29T00:19:50.743Z,10.17000008
2022-12-29T00:20:53.919Z,10.18000031
2022-12-29T00:21:49.648Z,10.21000004
2022-12-29T00:22:50.205Z,10.17000008
2022-12-29T00:23:42.429Z,10.18000031
2022-12-29T00:29:47.636Z,11.25
2022-12-29T00:30:43.395Z,11.46000004
2022-12-29T00:31:46.807Z,11.46000004
2022-12-29T00:33:12.296Z,11.28999996
2022-12-29T00:33:51.628Z,11.14999962
2022-12-29T00:34:54.026Z,10.93000031
2022-12-29T00:35:49.861Z,10.84000015
2022-12-29T00:36:51.038Z,10.72999954
2022-12-29T00:37:49.079Z,10.61999989
2022-12-29T00:38:46.111Z,10.53999996
2022-12-29T00:40:44.356Z,10.39000034
2022-12-29T00:41:54.193Z,10.31999969
2022-12-29T00:42:50.662Z,10.23999977
2022-12-29T00:43:52.391Z,10.17000008
2022-12-29T00:44:53.628Z,10.15999985
2022-12-29T00:45:56.897Z,10.09000015
2022-12-29T00:46:52.240Z,10.06000042
2022-12-29T00:47:55.628Z,10.03999996
2022-12-29T00:48:52.499Z,10.02999973
2022-12-29T00:49:50.189Z,10
2022-12-29T00:50:44.634Z,9.960000038
2022-12-29T00:51:42.794Z,9.970000267
2022-12-29T00:52:39.922Z,9.949999809
2022-12-29T00:53:38.751Z,9.93999958
2022-12-29T00:54:45.443Z,9.949999809
2022-12-29T00:55:52.050Z,10.02999973
2022-12-29T01:09:47.853Z,12.47999954
2022-12-29T01:13:32.999Z,12.27999973
2022-12-29T01:17:25.873Z,12.5
2022-12-29T01:18:28.245Z,12.40999985
2022-12-29T01:19:22.631Z,12.18999958
2022-12-29T01:21:21.084Z,11.61999989
2022-12-29T01:22:20.478Z,11.47000027
2022-12-29T01:23:14.812Z,11.32999992
2022-12-29T01:24:13.942Z,11.21000004
2022-12-29T01:26:15.861Z,11.02000046
2022-12-29T01:27:11.085Z,10.94999981
2022-12-29T01:28:20.895Z,10.85000038
2022-12-29T01:28:26.090Z,10.85000038
2022-12-29T01:29:14.286Z,10.78999996
2022-12-29T01:31:09.277Z,10.69999981
2022-12-29T01:32:11.128Z,10.64999962
2022-12-29T01:33:05.446Z,10.61999989
2022-12-29T01:34:07.868Z,10.57999992
2022-12-29T01:36:02.451Z,10.5
2022-12-29T01:36:59.536Z,10.44999981
2022-12-29T01:38:02.778Z,10.39999962
2022-12-29T01:38:54.592Z,10.35999966
2022-12-29T01:40:47.272Z,10.32999992
2022-12-29T01:41:48.938Z,10.31999969
2022-12-29T01:42:43.335Z,10.27999973
2022-12-29T01:43:42.691Z,10.28999996
2022-12-29T01:44:37.208Z,10.27000046
2022-12-29T01:45:39.316Z,10.25
2022-12-29T01:46:33.754Z,10.22999954
2022-12-29T01:47:33.007Z,10.23999977
2022-12-29T01:48:28.430Z,10.23999977
2022-12-29T01:49:31.297Z,10.23999977
2022-12-29T01:50:35.265Z,10.18999958
2022-12-29T01:51:30.096Z,10.18999958
2022-12-29T01:52:34.814Z,10.19999981
2022-12-29T01:53:27.536Z,10.19999981
2022-12-29T01:54:28.987Z,10.21000004
2022-12-29T01:56:20.409Z,10.22000027
2022-12-29T01:57:17.853Z,10.21000004
2022-12-29T01:58:15.616Z,10.22999954
2022-12-29T01:59:10.045Z,10.22000027
2022-12-29T02:01:11.627Z,10.19999981
2022-12-29T02:02:02.394Z,10.21000004
2022-12-29T02:03:04.906Z,10.18000031
2022-12-29T02:04:50.549Z,10.22999954
2022-12-29T02:06:33.615Z,10.30000019
2022-12-29T02:07:36.386Z,10.31000042
2022-12-29T02:08:34.567Z,10.27999973
2022-12-29T02:09:34.823Z,10.27999973
2022-12-29T02:11:39.047Z,10.26000023
2022-12-29T02:12:37.408Z,10.23999977
2022-12-29T02:13:40.593Z,10.22000027
2022-12-29T02:14:41.104Z,10.22999954
2022-12-29T02:15:45.484Z,10.22000027
2022-12-29T02:16:42.598Z,10.19999981
2022-12-29T02:17:44.403Z,10.21000004
2022-12-29T02:18:53.621Z,10.19999981
2022-12-29T02:20:48.786Z,10.19999981
2022-12-29T02:21:53.148Z,10.18999958
2022-12-29T02:22:47.794Z,10.19999981
2022-12-29T02:23:49.096Z,10.19999981
2022-12-29T02:24:45.500Z,10.21000004
2022-12-29T02:25:47.937Z,10.21000004
2022-12-29T02:26:47.005Z,10.22000027
2022-12-29T02:27:48.244Z,10.22000027
2022-12-29T02:28:46.755Z,10.22999954
2022-12-29T02:30:55.266Z,10.21000004
2022-12-29T02:31:58.774Z,10.22000027
2022-12-29T02:32:54.950Z,10.22000027
2022-12-29T02:33:56.184Z,10.18999958
2022-12-29T02:36:00.432Z,10.21000004
2022-12-29T02:37:02.858Z,10.22000027
2022-12-29T02:37:58.877Z,10.23999977
2022-12-29T02:39:00.623Z,10.25
2022-12-29T02:40:00.217Z,10.27000046
2022-12-29T02:41:06.596Z,10.27000046
2022-12-29T02:42:08.060Z,10.27000046
2022-12-29T02:43:15.326Z,10.25
2022-12-29T02:45:16.039Z,10.31999969
2022-12-29T02:45:58.202Z,10.35999966
2022-12-29T02:47:02.067Z,10.38000011
2022-12-29T02:48:05.887Z,10.39999962
2022-12-29T02:49:04.076Z,10.39000034
2022-12-29T02:51:01.302Z,10.31999969
2022-12-29T02:52:03.217Z,10.34000015
2022-12-29T02:53:00.626Z,10.38000011
2022-12-29T02:54:02.358Z,10.39000034
2022-12-29T02:55:00.422Z,10.42000008
2022-12-29T02:56:05.572Z,10.43999958
2022-12-29T02:57:01.866Z,10.47000027
2022-12-29T02:58:04.269Z,10.46000004
2022-12-29T02:59:02.320Z,10.46000004
2022-12-29T03:00:03.738Z,10.42000008
2022-12-29T03:01:00.139Z,10.43000031
2022-12-29T03:02:01.393Z,10.43999958
2022-12-29T03:02:57.597Z,10.42000008
2022-12-29T03:04:00.564Z,10.42000008
2022-12-29T03:04:56.944Z,10.43000031
2022-12-29T03:06:00.872Z,10.43999958
2022-12-29T03:07:00.983Z,10.5
2022-12-29T03:07:59.960Z,10.5
2022-12-29T03:09:01.346Z,10.5
2022-12-29T03:11:01.003Z,10.48999977
2022-12-29T03:12:01.385Z,10.47999954
2022-12-29T03:13:00.526Z,10.47000027
2022-12-29T03:14:01.563Z,10.48999977
2022-12-29T03:15:02.044Z,10.47000027
2022-12-29T03:16:05.316Z,10.43000031
2022-12-29T03:17:06.490Z,10.43999958
2022-12-29T03:18:08.564Z,10.46000004
2022-12-29T03:19:11.419Z,10.44999981
2022-12-29T03:20:14.853Z,10.46000004
2022-12-29T03:21:18.275Z,10.47000027
2022-12-29T03:22:13.270Z,10.44999981
2022-12-29T03:23:13.824Z,10.46000004
2022-12-29T03:24:40.047Z,10.43999958
2022-12-29T03:25:21.388Z,10.5
2022-12-29T03:26:21.583Z,10.53999996
2022-12-29T03:27:22.112Z,10.55000019
2022-12-29T03:28:17.776Z,10.56999969
2022-12-29T03:29:24.246Z,10.56000042
2022-12-29T03:31:20.705Z,10.56999969
2022-12-29T03:32:16.438Z,10.56999969
2022-12-29T03:33:21.279Z,10.57999992
2022-12-29T03:34:19.878Z,10.59000015
2022-12-29T03:36:17.349Z,10.60000038
2022-12-29T03:37:17.358Z,10.61999989
2022-12-29T03:38:18.699Z,10.61999989
2022-12-29T03:39:23.175Z,10.64000034
2022-12-29T03:41:20.881Z,10.63000011
2022-12-29T03:42:23.389Z,10.60000038
2022-12-29T03:43:16.058Z,10.63000011
2022-12-29T03:44:27.616Z,10.64000034
2022-12-29T03:46:26.139Z,10.63000011
2022-12-29T03:47:21.845Z,10.64999962
2022-12-29T03:48:19.113Z,10.65999985
2022-12-29T03:49:20.280Z,10.64999962
2022-12-29T03:51:16.367Z,10.65999985
2022-12-29T03:52:17.007Z,10.65999985
2022-12-29T03:53:17.459Z,10.65999985
2022-12-29T03:54:13.329Z,10.65999985
2022-12-29T03:55:16.796Z,10.67000008
2022-12-29T03:56:16.624Z,10.65999985
2022-12-29T03:57:20.980Z,10.64999962
2022-12-29T03:58:14.050Z,10.67000008
2022-12-29T03:59:14.108Z,10.67000008
2022-12-29T04:00:16.682Z,10.67000008
2022-12-29T04:01:17.055Z,10.67000008
2022-12-29T04:02:16.718Z,10.67000008
2022-12-29T04:03:17.569Z,10.67000008
2022-12-29T04:04:15.677Z,10.68000031
2022-12-29T04:07:01.856Z,10.71000004
2022-12-29T04:07:46.115Z,10.77999973
2022-12-29T04:08:46.355Z,10.80000019
2022-12-29T04:09:48.682Z,10.78999996
2022-12-29T04:10:47.756Z,10.76000023
2022-12-29T04:11:54.313Z,10.71000004
2022-12-29T04:12:51.767Z,10.71000004
2022-12-29T04:13:52.346Z,10.68999958
2022-12-29T04:15:52.111Z,10.69999981
2022-12-29T04:17:02.083Z,10.69999981
2022-12-29T04:18:11.380Z,10.68000031
2022-12-29T04:19:08.014Z,10.68000031
2022-12-29T04:20:00.803Z,10.65999985
2022-12-29T04:21:06.569Z,10.67000008
2022-12-29T04:22:10.909Z,10.65999985
2022-12-29T04:23:07.287Z,10.65999985
2022-12-29T04:24:08.100Z,10.68000031
2022-12-29T04:25:05.041Z,10.68999958
2022-12-29T04:26:08.546Z,10.68999958
2022-12-29T04:27:12.476Z,10.68999958
2022-12-29T04:28:07.045Z,10.69999981
2022-12-29T04:29:10.265Z,10.72000027
2022-12-29T04:31:10.810Z,10.71000004
2022-12-29T04:32:11.326Z,10.69999981
2022-12-29T04:33:07.665Z,10.71000004
2022-12-29T04:34:15.645Z,10.69999981
2022-12-29T04:36:13.531Z,10.72000027
2022-12-29T04:37:07.717Z,10.72999954
2022-12-29T04:38:12.817Z,10.72000027
2022-12-29T04:39:13.947Z,10.72999954
2022-12-29T04:41:16.276Z,10.67000008
2022-12-29T04:42:10.260Z,10.67000008
2022-12-29T04:43:18.247Z,10.69999981
2022-12-29T04:44:11.432Z,10.68999958
2022-12-29T04:45:56.818Z,10.77999973
2022-12-29T04:46:36.693Z,10.85000038
2022-12-29T04:47:36.182Z,10.89999962
2022-12-29T04:48:31.045Z,10.90999985
2022-12-29T04:49:35.063Z,10.88000011
2022-12-29T04:51:34.817Z,10.82999992
2022-12-29T04:52:32.043Z,10.80000019
2022-12-29T04:53:34.533Z,10.81000042
2022-12-29T04:54:29.684Z,10.81999969
2022-12-29T04:55:30.189Z,10.81999969
2022-12-29T04:56:28.213Z,10.85999966
2022-12-29T04:57:29.843Z,10.85999966
2022-12-29T04:58:24.303Z,10.85999966
2022-12-29T04:59:26.269Z,10.81000042
2022-12-29T05:01:23.550Z,10.76000023
2022-12-29T05:02:31.152Z,10.77000046
2022-12-29T05:03:22.753Z,10.77000046
2022-12-29T05:04:23.169Z,10.77000046
2022-12-29T05:06:17.073Z,10.77000046
2022-12-29T05:07:12.611Z,10.71000004
2022-12-29T05:08:10.604Z,10.72000027
2022-12-29T05:09:10.135Z,10.72999954
2022-12-29T05:11:09.218Z,10.73999977
2022-12-29T05:12:05.417Z,10.77999973
2022-12-29T05:13:07.318Z,10.77999973
2022-12-29T05:13:59.848Z,10.78999996
2022-12-29T05:14:57.769Z,10.80000019
2022-12-29T05:16:01.256Z,10.81999969
2022-12-29T05:17:02.761Z,10.81000042
2022-12-29T05:17:57.692Z,10.81999969
2022-12-29T05:19:44.373Z,10.90999985
2022-12-29T05:20:24.034Z,10.97999954
2022-12-29T05:21:22.205Z,10.98999977
2022-12-29T05:22:27.761Z,10.97999954
2022-12-29T05:23:28.460Z,10.97000027
2022-12-29T05:24:26.548Z,10.96000004
2022-12-29T05:25:25.497Z,10.93000031
2022-12-29T05:26:20.770Z,10.93999958
2022-12-29T05:27:20.365Z,10.93000031
2022-12-29T05:28:18.651Z,10.89999962
2022-12-29T05:29:20.625Z,10.89000034
2022-12-29T05:30:16.111Z,10.89000034
2022-12-29T05:31:29.004Z,10.89000034
2022-12-29T05:32:23.848Z,10.88000011
2022-12-29T05:33:21.152Z,10.92000008
2022-12-29T05:34:23.460Z,10.90999985
2022-12-29T05:36:23.929Z,10.88000011
2022-12-29T05:37:18.107Z,10.92000008
2022-12-29T05:38:18.946Z,10.93000031
2022-12-29T05:39:13.801Z,10.93999958
2022-12-29T05:40:13.034Z,10.93999958
2022-12-29T05:41:07.625Z,10.93999958
2022-12-29T05:42:15.134Z,10.94999981
2022-12-29T05:43:20.580Z,10.97000027
2022-12-29T05:44:17.160Z,10.96000004
2022-12-29T05:46:17.966Z,10.96000004
2022-12-29T05:47:10.075Z,10.97000027
2022-12-29T05:48:15.527Z,10.97000027
2022-12-29T05:49:09.847Z,10.96000004
2022-12-29T05:51:14.903Z,10.97000027
2022-12-29T05:52:10.334Z,10.97000027
2022-12-29T05:53:10.549Z,10.97999954
2022-12-29T05:54:05.103Z,10.97000027
2022-12-29T05:55:09.615Z,11
2022-12-29T05:56:04.833Z,11.02999973
2022-12-29T05:57:11.972Z,11.06000042
2022-12-29T05:58:06.537Z,11.02999973
2022-12-29T05:59:05.981Z,11.03999996
2022-12-29T06:01:01.043Z,11.03999996
2022-12-29T06:01:59.382Z,11.02999973
2022-12-29T06:03:01.114Z,10.97000027
2022-12-29T06:04:00.746Z,10.97999954
2022-12-29T06:05:55.489Z,10.97000027
2022-12-29T06:07:41.453Z,11.02000046
2022-12-29T06:08:24.856Z,11.02999973
2022-12-29T06:09:24.027Z,11.06999969
2022-12-29T06:10:29.932Z,11.06000042
2022-12-29T06:11:35.476Z,11.01000023
2022-12-29T06:12:35.812Z,11.01000023
2022-12-29T06:13:32.382Z,10.97999954
2022-12-29T06:14:34.149Z,10.96000004
2022-12-29T06:16:31.762Z,10.93000031
2022-12-29T06:17:28.015Z,10.89000034
2022-12-29T06:18:34.764Z,10.85000038
2022-12-29T06:19:30.253Z,10.85999966
2022-12-29T06:20:33.375Z,10.86999989
2022-12-29T06:21:33.618Z,10.89999962
2022-12-29T06:22:42.237Z,10.88000011
2022-12-29T06:23:44.566Z,10.85000038
2022-12-29T06:24:46.721Z,10.84000015
2022-12-29T06:26:48.938Z,10.84000015
2022-12-29T06:27:50.897Z,10.82999992
2022-12-29T06:28:53.364Z,10.84000015
2022-12-29T06:30:58.436Z,10.82999992
2022-12-29T06:31:53.779Z,10.81999969
2022-12-29T06:32:58.228Z,10.82999992
2022-12-29T06:33:57.067Z,10.82999992
2022-12-29T06:35:00.192Z,10.85999966
2022-12-29T06:36:04.637Z,10.85000038
2022-12-29T06:37:01.035Z,10.85000038
2022-12-29T06:38:07.883Z,10.85999966
2022-12-29T06:39:08.635Z,10.81999969
2022-12-29T06:41:07.424Z,10.81000042
2022-12-29T06:42:06.544Z,10.78999996
2022-12-29T06:43:12.625Z,10.81000042
2022-12-29T06:44:11.472Z,10.78999996
2022-12-29T06:45:56.658Z,10.85999966
2022-12-29T06:46:43.575Z,10.93000031
2022-12-29T06:47:40.529Z,10.94999981
2022-12-29T06:48:41.939Z,10.96000004
2022-12-29T06:49:38.093Z,10.93000031
2022-12-29T06:51:35.419Z,10.92000008
2022-12-29T06:52:35.277Z,10.89999962
2022-12-29T06:53:29.681Z,10.86999989
2022-12-29T06:54:35.736Z,10.86999989
2022-12-29T06:56:33.497Z,10.85999966
2022-12-29T06:57:31.622Z,10.86999989
2022-12-29T06:58:29.796Z,10.85999966
2022-12-29T06:59:32.190Z,10.84000015
2022-12-29T07:01:28.051Z,10.85000038
2022-12-29T07:02:25.084Z,10.84000015
2022-12-29T07:03:24.843Z,10.84000015
2022-12-29T07:04:20.908Z,10.85000038
2022-12-29T07:05:19.219Z,10.82999992
2022-12-29T07:06:19.503Z,10.84000015
2022-12-29T07:07:14.396Z,10.84000015
2022-12-29T07:08:11.726Z,10.85000038
2022-12-29T07:09:11.011Z,10.85000038
2022-12-29T07:11:16.116Z,10.82999992
2022-12-29T07:12:12.714Z,10.85999966
2022-12-29T07:13:11.885Z,10.86999989
2022-12-29T07:14:12.339Z,10.88000011
2022-12-29T07:16:14.753Z,10.92000008
2022-12-29T07:17:52.431Z,11.06999969
2022-12-29T07:18:58.818Z,11.32999992
2022-12-29T07:20:55.561Z,11.51000023
2022-12-29T07:21:58.544Z,11.48999977
2022-12-29T07:22:52.906Z,11.42000008
2022-12-29T07:23:58.708Z,11.32999992
2022-12-29T07:25:52.774Z,11.18000031
2022-12-29T07:26:47.303Z,11.09000015
2022-12-29T07:27:51.089Z,11.02999973
2022-12-29T07:29:18.827Z,10.93999958
2022-12-29T07:31:09.230Z,10.96000004
2022-12-29T07:32:09.814Z,10.94999981
2022-12-29T07:33:11.788Z,10.92000008
2022-12-29T07:34:12.933Z,10.85999966
2022-12-29T07:36:12.764Z,10.82999992
2022-12-29T07:37:10.903Z,10.80000019
2022-12-29T07:38:11.939Z,10.78999996
2022-12-29T07:39:11.387Z,10.77999973
2022-12-29T07:41:16.105Z,10.72999954
2022-12-29T07:42:10.415Z,10.69999981
2022-12-29T07:43:15.024Z,10.68000031
2022-12-29T07:44:07.604Z,10.68000031
2022-12-29T07:45:09.897Z,10.64999962
2022-12-29T07:46:06.077Z,10.64999962
2022-12-29T07:47:09.164Z,10.61999989
2022-12-29T07:48:07.340Z,10.63000011
2022-12-29T07:49:07.533Z,10.60999966
2022-12-29T07:51:13.734Z,10.64000034
2022-12-29T07:52:10.170Z,10.61999989
2022-12-29T07:53:13.786Z,10.61999989
2022-12-29T07:54:12.836Z,10.61999989
2022-12-29T07:56:10.953Z,10.64000034
2022-12-29T07:57:10.301Z,10.60999966
2022-12-29T07:58:10.576Z,10.61999989
2022-12-29T07:59:07.329Z,10.63000011
2022-12-29T08:01:07.245Z,10.64999962
2022-12-29T08:02:10.300Z,10.67000008
2022-12-29T08:03:03.734Z,10.65999985
2022-12-29T08:04:09.145Z,10.67000008
2022-12-29T08:05:03.681Z,10.68000031
2022-12-29T08:06:03.908Z,10.68000031
2022-12-29T08:07:26.496Z,10.65999985
2022-12-29T08:08:10.197Z,10.64999962
2022-12-29T08:09:16.416Z,10.68999958
2022-12-29T08:09:22.018Z,10.68999958
2022-12-29T08:10:12.916Z,10.72000027
2022-12-29T08:11:11.721Z,10.72999954
2022-12-29T08:12:07.185Z,10.72999954
2022-12-29T08:13:09.881Z,10.72999954
2022-12-29T08:14:05.445Z,10.69999981
2022-12-29T08:15:05.457Z,10.69999981
2022-12-29T08:16:02.115Z,10.68000031
2022-12-29T08:17:02.968Z,10.68999958
2022-12-29T08:18:04.943Z,10.65999985
2022-12-29T08:19:06.613Z,10.64000034
2022-12-29T08:20:10.080Z,10.64000034
2022-12-29T08:21:05.629Z,10.61999989
2022-12-29T08:22:06.177Z,10.61999989
2022-12-29T08:23:02.447Z,10.59000015
2022-12-29T08:24:06.904Z,10.60999966
2022-12-29T08:25:02.278Z,10.60999966
2022-12-29T08:26:01.800Z,10.60999966
2022-12-29T08:26:57.227Z,10.59000015
2022-12-29T08:28:00.380Z,10.59000015
2022-12-29T08:28:52.886Z,10.57999992
2022-12-29T08:30:49.560Z,10.60000038
2022-12-29T08:31:50.895Z,10.59000015
2022-12-29T08:32:47.238Z,10.59000015
2022-12-29T08:33:48.106Z,10.61999989
2022-12-29T08:34:50.612Z,10.61999989
2022-12-29T08:35:45.890Z,10.60999966
2022-12-29T08:36:45.351Z,10.59000015
2022-12-29T08:37:41.635Z,10.60000038
2022-12-29T08:38:44.441Z,10.59000015
2022-12-29T08:39:37.483Z,10.56000042
2022-12-29T08:40:39.348Z,10.60000038
2022-12-29T08:41:40.452Z,10.61999989
2022-12-29T08:42:41.979Z,10.61999989
2022-12-29T08:43:36.815Z,10.60999966
2022-12-29T08:44:40.303Z,10.60999966
2022-12-29T08:46:36.758Z,10.61999989
2022-12-29T08:48:22.409Z,10.67000008
2022-12-29T08:49:09.591Z,10.73999977
2022-12-29T08:50:09.696Z,10.73999977
2022-12-29T08:51:10.805Z,10.72999954
2022-12-29T08:52:12.640Z,10.72000027
2022-12-29T08:53:15.264Z,10.68999958
2022-12-29T08:54:13.336Z,10.68000031
2022-12-29T08:55:15.224Z,10.57999992
2022-12-29T08:56:12.734Z,10.59000015
2022-12-29T08:57:14.421Z,10.56000042
2022-12-29T08:58:12.588Z,10.52000046
2022-12-29T08:59:13.633Z,10.48999977
2022-12-29T09:00:11.675Z,10.46000004
2022-12-29T09:01:16.608Z,10.40999985
2022-12-29T09:02:13.423Z,10.39000034
2022-12-29T09:03:25.866Z,10.39000034
2022-12-29T09:03:46.091Z,10.39000034
2022-12-29T09:03:55.177Z,10.39000034
2022-12-29T09:04:21.353Z,10.42000008
2022-12-29T09:06:19.123Z,10.43000031
2022-12-29T09:07:20.811Z,10.43000031
2022-12-29T09:08:22.312Z,10.43000031
2022-12-29T09:08:26.176Z,10.43000031
2022-12-29T09:09:19.336Z,10.43999958
2022-12-29T09:10:15.433Z,10.47000027
2022-12-29T09:11:19.047Z,10.40999985
2022-12-29T09:12:14.154Z,10.39000034
2022-12-29T09:13:13.921Z,10.36999989
2022-12-29T09:14:10.081Z,10.38000011
2022-12-29T09:16:09.444Z,10.35999966
2022-12-29T09:17:10.761Z,10.31000042
2022-12-29T09:18:08.169Z,10.31999969
2022-12-29T09:19:10.364Z,10.30000019
2022-12-29T09:21:08.100Z,10.28999996
2022-12-29T09:22:04.734Z,10.30000019
2022-12-29T09:23:06.959Z,10.27000046
2022-12-29T09:24:06.202Z,10.28999996
2022-12-29T09:26:08.236Z,10.31000042
2022-12-29T09:27:02.512Z,10.31999969
2022-12-29T09:28:05.300Z,10.32999992
2022-12-29T09:29:31.691Z,10.35999966
2022-12-29T09:31:13.236Z,10.40999985
2022-12-29T09:32:13.951Z,10.42000008
2022-12-29T09:32:18.539Z,10.42000008
2022-12-29T09:32:19.863Z,10.42000008
2022-12-29T09:33:11.624Z,10.46000004
2022-12-29T09:34:07.684Z,10.48999977
2022-12-29T09:35:11.669Z,10.5
2022-12-29T09:36:07.011Z,10.5
2022-12-29T09:37:07.139Z,10.5
2022-12-29T09:38:02.460Z,10.47999954
2022-12-29T09:39:02.375Z,10.48999977
2022-12-29T09:40:01.823Z,10.48999977
2022-12-29T09:41:03.342Z,10.47999954
2022-12-29T09:41:59.790Z,10.47000027
2022-12-29T09:43:05.030Z,10.47000027
2022-12-29T09:43:57.671Z,10.47999954
2022-12-29T09:45:55.030Z,10.5
2022-12-29T09:46:54.809Z,10.5
2022-12-29T09:47:49.482Z,10.5
2022-12-29T09:48:49.336Z,10.48999977
2022-12-29T09:49:45.781Z,10.51000023
2022-12-29T09:50:48.450Z,10.47999954
2022-12-29T09:51:51.213Z,10.47000027
2022-12-29T09:52:43.693Z,10.47999954
2022-12-29T09:53:44.637Z,10.46000004
2022-12-29T09:54:40.836Z,10.43999958
2022-12-29T09:56:42.884Z,10.43999958
2022-12-29T09:57:46.093Z,10.47000027
2022-12-29T09:58:40.472Z,10.46000004
2022-12-29T09:59:43.691Z,10.46000004
2022-12-29T10:00:40.141Z,10.46000004
2022-12-29T10:01:42.919Z,10.47000027
2022-12-29T10:02:45.043Z,10.52000046
2022-12-29T10:03:43.832Z,10.52000046
2022-12-29T10:04:39.416Z,10.51000023
2022-12-29T10:05:42.543Z,10.5
2022-12-29T10:06:50.237Z,10.47999954
2022-12-29T10:07:03.558Z,10.47999954
2022-12-29T10:07:19.363Z,10.47999954
2022-12-29T10:07:39.342Z,10.5
2022-12-29T10:08:41.546Z,10.56999969
2022-12-29T10:09:41.187Z,10.57999992
2022-12-29T10:10:36.544Z,10.56999969
2022-12-29T10:11:38.985Z,10.56999969
2022-12-29T10:12:31.642Z,10.52999973
2022-12-29T10:13:33.829Z,10.51000023
2022-12-29T10:14:26.487Z,10.51000023
2022-12-29T10:15:27.793Z,10.52000046
2022-12-29T10:16:23.933Z,10.48999977
2022-12-29T10:17:24.910Z,10.48999977
2022-12-29T10:18:20.392Z,10.47000027
2022-12-29T10:19:21.241Z,10.46000004
2022-12-29T10:20:51.948Z,10.46000004
2022-12-29T10:21:38.957Z,10.51000023
2022-12-29T10:22:35.965Z,10.51000023
2022-12-29T10:23:37.485Z,10.47000027
2022-12-29T10:24:32.637Z,10.47999954
2022-12-29T10:26:27.527Z,10.43999958
2022-12-29T10:27:27.548Z,10.42000008
2022-12-29T10:28:22.848Z,10.40999985
2022-12-29T10:29:22.297Z,10.42000008
2022-12-29T10:30:17.799Z,10.39999962
2022-12-29T10:30:47.955Z,10.39000034
2022-12-29T10:31:44.074Z,10.42000008
2022-12-29T10:32:39.778Z,10.43000031
2022-12-29T10:33:45.172Z,10.40999985
2022-12-29T10:34:43.319Z,10.43000031
2022-12-29T10:36:47.100Z,10.39000034
2022-12-29T10:37:49.099Z,10.39000034
2022-12-29T10:38:45.357Z,10.35999966
2022-12-29T10:39:46.740Z,10.39000034
2022-12-29T10:41:44.424Z,10.36999989
2022-12-29T10:42:43.735Z,10.36999989
2022-12-29T10:43:41.248Z,10.39000034
2022-12-29T10:44:41.551Z,10.36999989
2022-12-29T10:45:43.387Z,10.36999989
2022-12-29T10:46:39.479Z,10.39999962
2022-12-29T10:47:34.777Z,10.42000008
2022-12-29T10:48:34.450Z,10.42000008
2022-12-29T10:49:32.602Z,10.42000008
2022-12-29T10:51:28.334Z,10.40999985
2022-12-29T10:52:33.242Z,10.39999962
2022-12-29T10:53:29.250Z,10.38000011
2022-12-29T10:54:32.096Z,10.39999962
2022-12-29T10:55:26.735Z,10.36999989
2022-12-29T10:56:29.317Z,10.35000038
2022-12-29T10:57:23.853Z,10.36999989
2022-12-29T10:58:21.141Z,10.36999989
2022-12-29T10:59:23.447Z,10.39000034
2022-12-29T11:00:56.671Z,10.43000031
2022-12-29T11:01:45.871Z,10.5
2022-12-29T11:02:43.372Z,10.52000046
2022-12-29T11:03:44.587Z,10.55000019
2022-12-29T11:04:46.344Z,10.52999973
2022-12-29T11:06:43.667Z,10.5
2022-12-29T11:07:46.923Z,10.5
2022-12-29T11:08:42.392Z,10.5
2022-12-29T11:09:44.427Z,10.47999954
2022-12-29T11:10:39.045Z,10.5
2022-12-29T11:11:44.028Z,10.47000027
2022-12-29T11:12:37.208Z,10.47000027
2022-12-29T11:13:39.458Z,10.47999954
2022-12-29T11:14:35.316Z,10.5
2022-12-29T11:16:35.375Z,10.5
2022-12-29T11:17:37.699Z,10.51000023
2022-12-29T11:18:32.062Z,10.47000027
2022-12-29T11:19:28.614Z,10.47000027
2022-12-29T11:20:28.737Z,10.48999977
2022-12-29T11:21:24.925Z,10.46000004
2022-12-29T11:22:31.553Z,10.47000027
2022-12-29T11:23:26.161Z,10.44999981
2022-12-29T11:24:24.014Z,10.43999958
2022-12-29T11:25:21.250Z,10.43000031
2022-12-29T11:26:27.681Z,10.40999985
2022-12-29T11:26:34.106Z,10.40999985
2022-12-29T11:27:21.045Z,10.44999981
2022-12-29T11:28:16.526Z,10.51000023
2022-12-29T11:29:16.358Z,10.5
2022-12-29T11:30:11.839Z,10.5
2022-12-29T11:31:15.588Z,10.51000023
2022-12-29T11:32:10.011Z,10.53999996
2022-12-29T11:33:09.788Z,10.55000019
2022-12-29T11:34:06.347Z,10.52000046
2022-12-29T11:35:06.822Z,10.52000046
2022-12-29T11:36:03.333Z,10.46000004
2022-12-29T11:37:05.582Z,10.47000027
2022-12-29T11:37:58.535Z,10.46000004
2022-12-29T11:39:01.096Z,10.42000008
2022-12-29T11:39:53.732Z,10.43000031
2022-12-29T11:41:17.656Z,10.42000008
2022-12-29T11:41:57.958Z,10.43000031
2022-12-29T11:42:58.413Z,10.46000004
2022-12-29T11:43:58.228Z,10.48999977
2022-12-29T11:44:54.633Z,10.46000004
2022-12-29T11:45:56.792Z,10.42000008
2022-12-29T11:46:52.131Z,10.39999962
2022-12-29T11:47:57.070Z,10.39000034
2022-12-29T11:48:52.759Z,10.35999966
2022-12-29T11:49:53.373Z,10.35000038
2022-12-29T11:50:49.765Z,10.35000038
2022-12-29T11:51:52.878Z,10.32999992
2022-12-29T11:52:45.745Z,10.34000015
2022-12-29T11:53:49.018Z,10.35000038
2022-12-29T11:54:54.599Z,10.35999966
2022-12-29T11:55:54.243Z,10.35000038
2022-12-29T11:56:50.738Z,10.39999962
2022-12-29T11:57:51.756Z,10.39000034
2022-12-29T11:58:48.277Z,10.32999992
2022-12-29T12:00:53.241Z,10.27999973
2022-12-29T12:01:52.066Z,10.30000019
2022-12-29T12:02:55.534Z,10.30000019
2022-12-29T12:03:49.344Z,10.28999996
2022-12-29T12:04:56.355Z,10.30000019
2022-12-29T12:05:49.034Z,10.28999996
2022-12-29T12:06:51.926Z,10.30000019
2022-12-29T12:07:48.603Z,10.30000019
2022-12-29T12:08:51.310Z,10.31999969
2022-12-29T12:09:45.618Z,10.35000038
2022-12-29T12:10:44.889Z,10.36999989
2022-12-29T12:11:42.077Z,10.35000038
2022-12-29T12:12:43.701Z,10.31999969
2022-12-29T12:13:39.414Z,10.31000042